SBBI

Bacacheri Airport

Curitiba, Brazil
TAF SBBI 230915Z 2312/2324 33004KT 9999 BKN009 TN13/2312Z TX25/2318Z BECMG 2312/2314 SCT020 BECMG 2314/2316 27006KT CAVOK BECMG 2320/2322 09005KT RMK PCX
Issued Valid From Valid To
Jul-23 @ 09:15 UTC
(4 hours ago)
Jul-23 @ 12:00 UTC
(2 hours ago)
Jul-24 @ 00:00 UTC
(in 10 hours)
Jul-23 @ 12:00 to Jul-24 @ 00:00
TAF SBBI 230915Z 2312/2324 33004KT 9999 BKN009 TN13/2312Z TX25/2318Z
Wind Visibility Clouds
330° at 4 knots 10,000+ meters
  • Broken at 900' AGL
Becoming Jul-23 @ 12:00 to Jul-23 @ 14:00
BECMG 2312/2314 SCT020
Wind Visibility Clouds
330° at 4 knots 10,000+ meters
  • Scattered at 2,000' AGL
Becoming Jul-23 @ 14:00 to Jul-23 @ 20:00
BECMG 2314/2316 27006KT CAVOK
Wind Visibility Clouds Conditions
270° at 6 knots 10,000+ meters
  • No significant clouds
Becoming Jul-23 @ 20:00 to Jul-24 @ 00:00
BECMG 2320/2322 09005KT RMK PCX
Wind Visibility Clouds Conditions
90° at 5 knots 10,000+ meters
  • No significant clouds
TAF SBBI 230915Z 2312/2324 33004KT 9999 BKN009 TN13/2312Z TX25/2318Z BECMG 2312/2314 SCT020 BECMG 2314/2316 27006KT CAVOK BECMG 2320/2322 09005KT RMK PCX
Issued Jul-23 @ 09:15 UTC
(4 hours ago)
Valid From Jul-23 @ 12:00 UTC
(2 hours ago)
Valid To Jul-24 @ 00:00 UTC
(in 10 hours)
Jul-23 @ 12:00 - Jul-24 @ 00:00
Wind Visibility
330° at 4 knots 10,000+ meters
Clouds
  • Broken at 900' AGL
Becoming Jul-23 @ 12:00 - Jul-23 @ 14:00
Wind Visibility
330° at 4 knots 10,000+ meters
Clouds
  • Scattered at 2,000' AGL
Becoming Jul-23 @ 14:00 - Jul-23 @ 20:00
Wind Visibility
270° at 6 knots 10,000+ meters
Clouds
  • No significant clouds
Conditions
Becoming Jul-23 @ 20:00 - Jul-24 @ 00:00
Wind Visibility
90° at 5 knots 10,000+ meters
Clouds
  • No significant clouds
Conditions